createdAt,value
2018-06-15T00:02:22.457Z,31.23
2018-06-15T00:04:49.773Z,34.20
2018-06-15T00:07:17.082Z,29.07
2018-06-15T00:09:44.361Z,31.90
2018-06-15T00:12:11.644Z,27.97
2018-06-15T00:14:38.947Z,25.20
2018-06-15T00:17:06.245Z,30.37
2018-06-15T00:19:33.533Z,27.77
2018-06-15T00:22:00.801Z,32.10
2018-06-15T00:24:28.175Z,29.90
2018-06-15T00:26:55.448Z,33.00
2018-06-15T00:29:22.800Z,27.73
2018-06-15T00:31:50.052Z,33.90
2018-06-15T00:34:17.309Z,32.23
2018-06-15T00:36:44.581Z,36.43
2018-06-15T00:39:12.873Z,27.07
2018-06-15T00:41:41.160Z,28.07
2018-06-15T00:44:08.721Z,31.13
2018-06-15T00:46:36.013Z,30.07
2018-06-15T00:49:03.437Z,32.33
2018-06-15T00:51:30.825Z,38.40
2018-06-15T00:53:58.282Z,38.70
2018-06-15T00:56:25.542Z,33.53
2018-06-15T00:58:52.884Z,27.70
2018-06-15T01:01:20.177Z,33.03
2018-06-15T01:03:47.469Z,42.00
2018-06-15T01:06:14.749Z,33.90
2018-06-15T01:08:42.018Z,33.03
2018-06-15T01:11:09.316Z,35.83
2018-06-15T01:13:36.776Z,30.83
2018-06-15T01:16:04.253Z,31.13
2018-06-15T01:18:31.514Z,34.70
2018-06-15T01:20:58.795Z,28.73
2018-06-15T01:23:26.080Z,31.63
2018-06-15T01:25:53.345Z,31.63
2018-06-15T01:28:20.626Z,33.77
2018-06-15T01:30:47.908Z,35.57
2018-06-15T01:33:15.169Z,32.70
2018-06-15T01:35:42.455Z,30.53
2018-06-15T01:38:09.708Z,34.37
2018-06-15T01:40:36.975Z,33.50
2018-06-15T01:43:04.244Z,34.30
2018-06-15T01:45:31.525Z,32.97
2018-06-15T01:47:58.781Z,33.47
2018-06-15T01:50:26.076Z,38.70
2018-06-15T01:52:53.343Z,31.73
2018-06-15T01:55:20.606Z,36.67
2018-06-15T01:57:47.904Z,31.83
2018-06-15T02:00:15.173Z,32.57
2018-06-15T02:02:42.442Z,33.30
2018-06-15T02:05:09.704Z,37.63
2018-06-15T02:07:36.982Z,36.37
2018-06-15T02:10:04.249Z,39.57
2018-06-15T02:12:31.514Z,34.27
2018-06-15T02:14:58.821Z,40.20
2018-06-15T02:17:26.103Z,42.07
2018-06-15T02:19:53.395Z,39.00
2018-06-15T02:22:20.661Z,40.77
2018-06-15T02:24:47.925Z,36.53
2018-06-15T02:27:15.193Z,38.00
2018-06-15T02:29:42.484Z,36.07
2018-06-15T02:32:09.744Z,44.33
2018-06-15T02:34:37.033Z,39.73
2018-06-15T02:37:04.314Z,38.40
2018-06-15T02:39:31.594Z,42.20
2018-06-15T02:41:58.872Z,32.47
2018-06-15T02:44:26.137Z,37.93
2018-06-15T02:46:53.601Z,37.93
2018-06-15T02:49:20.857Z,41.83
2018-06-15T02:51:48.141Z,44.07
2018-06-15T02:54:15.404Z,34.20
2018-06-15T02:56:42.693Z,32.80
2018-06-15T02:59:09.981Z,39.23
2018-06-15T03:01:37.269Z,45.77
2018-06-15T03:04:04.533Z,40.20
2018-06-15T03:06:31.797Z,48.87
2018-06-15T03:08:59.060Z,40.37
2018-06-15T03:11:26.334Z,41.67
2018-06-15T03:13:53.606Z,39.33
2018-06-15T03:16:20.905Z,48.43
2018-06-15T03:18:48.181Z,35.90
2018-06-15T03:21:15.446Z,43.63
2018-06-15T03:23:42.843Z,48.93
2018-06-15T03:26:10.114Z,39.83
2018-06-15T03:28:37.404Z,49.33
2018-06-15T03:31:04.685Z,40.73
2018-06-15T03:33:31.977Z,45.83
2018-06-15T03:35:59.237Z,44.57
2018-06-15T03:38:26.500Z,43.57
2018-06-15T03:40:53.801Z,50.43
2018-06-15T03:43:21.072Z,50.47
2018-06-15T03:45:48.577Z,56.93
2018-06-15T03:48:16.081Z,43.60
2018-06-15T03:50:43.353Z,46.70
2018-06-15T03:53:10.623Z,37.80
2018-06-15T03:55:37.901Z,39.33
2018-06-15T03:58:05.197Z,42.20
2018-06-15T04:00:32.469Z,46.03
2018-06-15T04:02:59.745Z,33.90
2018-06-15T04:05:27.009Z,41.50
2018-06-15T04:07:54.273Z,38.90
2018-06-15T04:10:21.607Z,35.13
2018-06-15T04:12:49.072Z,44.47
2018-06-15T04:15:16.336Z,42.13
2018-06-15T04:17:43.611Z,37.13
2018-06-15T04:20:10.934Z,35.57
2018-06-15T04:22:38.230Z,38.67
2018-06-15T04:25:05.503Z,43.67
2018-06-15T04:27:32.765Z,40.43
2018-06-15T04:30:00.060Z,39.10
2018-06-15T04:32:27.321Z,40.53
2018-06-15T04:34:54.588Z,32.00
2018-06-15T04:37:21.926Z,40.03
2018-06-15T04:39:49.205Z,53.03
2018-06-15T04:42:16.456Z,45.67
2018-06-15T04:44:43.724Z,43.93
2018-06-15T04:47:11.021Z,43.60
2018-06-15T04:49:38.918Z,42.03
2018-06-15T04:52:06.245Z,40.37
2018-06-15T04:54:33.625Z,56.07
2018-06-15T04:57:00.900Z,35.60
2018-06-15T04:59:28.470Z,42.47
2018-06-15T05:01:55.781Z,34.17
2018-06-15T05:04:23.093Z,41.43
2018-06-15T05:06:50.470Z,36.70
2018-06-15T05:09:17.798Z,35.07
2018-06-15T05:11:45.075Z,38.37
2018-06-15T05:14:12.348Z,42.93
2018-06-15T05:16:39.648Z,38.67
2018-06-15T05:19:06.934Z,41.10
2018-06-15T05:21:34.225Z,36.10
2018-06-15T05:24:01.523Z,29.93
2018-06-15T05:26:28.785Z,35.13
2018-06-15T05:28:56.364Z,39.03
2018-06-15T05:31:23.638Z,36.10
2018-06-15T05:33:51.095Z,37.57
2018-06-15T05:36:18.401Z,38.03
2018-06-15T05:38:45.660Z,37.57
2018-06-15T05:41:12.938Z,41.00
2018-06-15T05:43:40.200Z,24.83
2018-06-15T05:46:07.581Z,34.43
2018-06-15T05:48:35.041Z,31.87
2018-06-15T05:51:02.549Z,29.47
2018-06-15T05:53:29.829Z,36.53
2018-06-15T05:55:57.081Z,41.27
2018-06-15T05:58:24.342Z,26.70
2018-06-15T06:00:51.644Z,36.40
2018-06-15T06:03:19.410Z,25.23
2018-06-15T06:05:47.183Z,22.53
2018-06-15T06:08:17.301Z,26.43
2018-06-15T06:10:44.784Z,33.77
2018-06-15T06:13:12.058Z,33.93
2018-06-15T06:15:39.329Z,28.60
2018-06-15T06:18:06.741Z,29.33
2018-06-15T06:20:34.029Z,32.23
2018-06-15T06:23:01.361Z,24.67
2018-06-15T06:25:28.648Z,27.47
2018-06-15T06:27:55.973Z,24.93
2018-06-15T06:30:23.238Z,21.80
2018-06-15T06:32:50.513Z,23.90
2018-06-15T06:35:17.842Z,26.20
2018-06-15T06:37:45.106Z,23.93
2018-06-15T06:40:12.445Z,34.37
2018-06-15T06:42:39.799Z,20.23
2018-06-15T06:45:07.082Z,22.03
2018-06-15T06:47:34.345Z,22.27
2018-06-15T06:50:01.630Z,12.33
2018-06-15T06:52:29.122Z,17.23
2018-06-15T06:54:56.402Z,22.83
2018-06-15T06:57:23.692Z,15.07
2018-06-15T06:59:50.966Z,19.50
2018-06-15T07:02:18.233Z,14.80
2018-06-15T07:04:45.497Z,20.20
2018-06-15T07:07:12.765Z,15.43
2018-06-15T07:09:40.053Z,19.10
2018-06-15T07:12:07.318Z,20.53
2018-06-15T07:14:34.593Z,17.67
2018-06-15T07:17:01.857Z,20.33
2018-06-15T07:19:29.130Z,19.43
2018-06-15T07:21:56.432Z,14.37
2018-06-15T07:24:23.689Z,18.37
2018-06-15T07:26:50.956Z,13.70
2018-06-15T07:29:18.232Z,12.77
2018-06-15T07:31:45.685Z,14.43
2018-06-15T07:34:12.947Z,16.70
2018-06-15T07:36:40.333Z,17.77
2018-06-15T07:39:08.116Z,11.10
2018-06-15T07:41:35.405Z,24.70
2018-06-15T07:44:02.665Z,11.70
2018-06-15T07:46:29.931Z,18.07
2018-06-15T07:48:57.828Z,21.27
2018-06-15T07:51:25.206Z,17.70
2018-06-15T07:53:52.769Z,11.40
2018-06-15T07:56:20.101Z,17.43
2018-06-15T07:58:47.384Z,14.07
2018-06-15T08:01:14.661Z,13.00
2018-06-15T08:03:46.541Z,7.20
2018-06-15T08:06:13.793Z,9.47
2018-06-15T08:08:41.069Z,10.93
2018-06-15T08:11:08.341Z,14.93
2018-06-15T08:13:35.627Z,11.50
2018-06-15T08:16:02.947Z,13.87
2018-06-15T08:18:30.222Z,11.57
2018-06-15T08:20:57.519Z,9.90
2018-06-15T08:23:24.819Z,15.67
2018-06-15T08:25:52.282Z,9.63
2018-06-15T08:28:19.561Z,12.90
2018-06-15T08:30:46.837Z,7.23
2018-06-15T08:33:14.125Z,8.83
2018-06-15T08:35:41.402Z,8.50
2018-06-15T08:38:08.700Z,10.07
2018-06-15T08:40:35.970Z,9.57
2018-06-15T08:43:03.250Z,9.40
2018-06-15T08:45:30.545Z,8.33
2018-06-15T08:47:57.847Z,10.40
2018-06-15T08:50:25.121Z,7.87
2018-06-15T08:52:52.397Z,7.70
2018-06-15T08:55:19.904Z,4.87
2018-06-15T08:57:47.218Z,9.40
2018-06-15T09:00:14.517Z,11.47
2018-06-15T09:02:41.785Z,5.93
2018-06-15T09:05:09.073Z,4.53
2018-06-15T09:07:36.421Z,10.80
2018-06-15T09:10:03.718Z,6.23
2018-06-15T09:12:30.993Z,11.47
2018-06-15T09:14:58.516Z,10.90
2018-06-15T09:17:25.785Z,13.17
2018-06-15T09:19:53.053Z,6.53
2018-06-15T09:22:20.377Z,2.80
2018-06-15T09:24:47.658Z,8.27
2018-06-15T09:27:14.913Z,8.60
2018-06-15T09:29:42.189Z,10.60
2018-06-15T09:32:09.476Z,5.83
2018-06-15T09:34:36.749Z,10.23
2018-06-15T09:37:04.035Z,6.80
2018-06-15T09:39:31.329Z,6.10
2018-06-15T09:41:58.642Z,8.63
2018-06-15T09:44:25.941Z,12.00
2018-06-15T09:46:53.213Z,10.07
2018-06-15T09:49:20.483Z,6.90
2018-06-15T09:51:47.754Z,6.63
2018-06-15T09:54:15.082Z,3.33
2018-06-15T09:56:42.617Z,11.10
2018-06-15T09:59:09.892Z,12.00
2018-06-15T10:01:37.169Z,7.33
2018-06-15T10:04:04.445Z,7.33
2018-06-15T10:06:31.717Z,14.83
2018-06-15T10:08:58.986Z,8.47
2018-06-15T10:11:26.252Z,8.97
2018-06-15T10:13:53.561Z,7.10
2018-06-15T10:16:20.842Z,10.10
2018-06-15T10:18:48.112Z,10.63
2018-06-15T10:21:15.364Z,4.10
2018-06-15T10:23:42.624Z,7.73
2018-06-15T10:26:09.898Z,9.97
2018-06-15T10:28:37.161Z,6.87
2018-06-15T10:31:04.457Z,8.13
2018-06-15T10:33:31.717Z,9.07
2018-06-15T10:35:59.046Z,6.60
2018-06-15T10:38:26.335Z,8.77
2018-06-15T10:40:53.620Z,8.90
2018-06-15T10:43:20.932Z,5.77
2018-06-15T10:45:48.222Z,6.63
2018-06-15T10:48:15.524Z,5.90
2018-06-15T10:50:42.887Z,12.43
2018-06-15T10:53:10.165Z,7.40
2018-06-15T10:55:37.449Z,10.27
2018-06-15T10:58:04.972Z,7.03
2018-06-15T11:00:32.245Z,4.33
2018-06-15T11:02:59.633Z,6.10
2018-06-15T11:05:26.913Z,4.77
2018-06-15T11:07:54.245Z,7.73
2018-06-15T11:10:21.529Z,8.77
2018-06-15T11:12:48.824Z,17.73
2018-06-15T11:15:16.118Z,15.30
2018-06-15T11:17:43.385Z,4.60
2018-06-15T11:20:10.673Z,27.20
2018-06-15T11:22:37.964Z,15.80
2018-06-15T11:25:05.301Z,12.23
2018-06-15T11:27:32.597Z,14.97
2018-06-15T11:29:59.892Z,15.70
2018-06-15T11:32:27.297Z,9.47
2018-06-15T11:34:54.581Z,14.70
2018-06-15T11:37:21.849Z,14.70
2018-06-15T11:39:49.131Z,8.70
2018-06-15T11:42:16.413Z,8.20
2018-06-15T11:44:43.720Z,5.73
2018-06-15T11:47:11.090Z,10.00
2018-06-15T11:49:38.364Z,7.00
2018-06-15T11:52:05.689Z,8.77
2018-06-15T11:54:32.960Z,8.00
2018-06-15T11:57:00.253Z,6.93
2018-06-15T11:59:27.729Z,7.90
2018-06-15T12:01:55.009Z,7.10
2018-06-15T12:04:22.283Z,5.93
2018-06-15T12:06:49.616Z,6.43
2018-06-15T12:09:16.920Z,6.40
2018-06-15T12:11:44.221Z,8.60
2018-06-15T12:14:11.481Z,9.00
2018-06-15T12:16:38.766Z,6.57
2018-06-15T12:19:06.065Z,6.40
2018-06-15T12:21:33.374Z,5.23
2018-06-15T12:24:00.649Z,6.33
2018-06-15T12:26:27.977Z,6.73
2018-06-15T12:28:55.243Z,6.03
2018-06-15T12:31:22.524Z,5.70
2018-06-15T12:33:49.823Z,5.80
2018-06-15T12:36:17.090Z,7.80
2018-06-15T12:38:44.389Z,7.03
2018-06-15T12:41:11.777Z,9.13
2018-06-15T12:43:39.068Z,12.57
2018-06-15T12:46:06.585Z,6.70
2018-06-15T12:48:33.989Z,5.23
2018-06-15T12:51:01.276Z,8.60
2018-06-15T12:53:28.772Z,9.83
2018-06-15T12:55:56.049Z,8.37
2018-06-15T12:58:23.309Z,8.80
2018-06-15T13:00:50.807Z,9.40
2018-06-15T13:03:18.081Z,11.30
2018-06-15T13:05:45.357Z,7.17
2018-06-15T13:08:12.634Z,6.77
2018-06-15T13:10:39.909Z,9.30
2018-06-15T13:13:07.184Z,4.27
2018-06-15T13:15:34.470Z,5.97
2018-06-15T13:18:04.127Z,18.97
2018-06-15T13:20:31.902Z,10.30
2018-06-15T13:22:59.180Z,8.83
2018-06-15T13:25:26.464Z,5.80
2018-06-15T13:27:53.742Z,8.33
2018-06-15T13:30:21.025Z,6.37
2018-06-15T13:32:48.366Z,12.73
2018-06-15T13:35:15.620Z,42.17
2018-06-15T13:37:42.945Z,25.57
2018-06-15T13:40:10.239Z,10.73
2018-06-15T13:42:37.526Z,11.60
2018-06-15T13:45:04.840Z,8.83
2018-06-15T13:47:32.089Z,11.40
2018-06-15T13:49:59.396Z,7.00
2018-06-15T13:52:26.672Z,5.27
2018-06-15T13:54:53.945Z,7.33
2018-06-15T13:57:21.477Z,9.67
2018-06-15T13:59:48.752Z,9.20
2018-06-15T14:02:16.253Z,7.63
2018-06-15T14:04:43.518Z,14.97
2018-06-15T14:07:10.807Z,9.47
2018-06-15T14:09:38.098Z,4.73
2018-06-15T14:12:05.373Z,11.37
2018-06-15T14:14:32.806Z,8.30
2018-06-15T14:17:00.082Z,8.93
2018-06-15T14:19:27.340Z,9.03
2018-06-15T14:21:54.627Z,9.20
2018-06-15T14:24:21.920Z,14.67
2018-06-15T14:26:49.199Z,12.50
2018-06-15T14:29:16.501Z,8.57
2018-06-15T14:31:43.775Z,7.67
2018-06-15T14:34:11.046Z,7.50
2018-06-15T14:36:38.345Z,5.43
2018-06-15T14:39:06.286Z,5.00
2018-06-15T14:41:33.580Z,8.07
2018-06-15T14:44:00.884Z,10.20
2018-06-15T14:46:28.157Z,9.30
2018-06-15T14:48:55.461Z,14.10
2018-06-15T14:51:22.777Z,6.57
2018-06-15T14:53:50.097Z,6.37
2018-06-15T14:56:17.401Z,13.60
2018-06-15T14:58:44.700Z,19.70
2018-06-15T15:01:12.023Z,14.33
2018-06-15T15:03:39.575Z,7.93
2018-06-15T15:06:06.949Z,27.43
2018-06-15T15:08:34.284Z,14.00
2018-06-15T15:11:01.697Z,11.13
2018-06-15T15:13:28.980Z,20.00
2018-06-15T15:15:56.322Z,10.73
2018-06-15T15:18:23.654Z,13.77
2018-06-15T15:20:50.952Z,23.80
2018-06-15T15:23:18.239Z,15.40
2018-06-15T15:25:45.532Z,6.77
2018-06-15T15:28:12.829Z,9.43
2018-06-15T15:30:40.128Z,51.80
2018-06-15T15:33:07.491Z,16.70
2018-06-15T15:35:34.768Z,8.97
2018-06-15T15:38:02.150Z,6.10
2018-06-15T15:40:29.492Z,10.57
2018-06-15T15:42:56.771Z,8.90
2018-06-15T15:45:24.073Z,10.43
2018-06-15T15:47:51.361Z,6.47
2018-06-15T15:50:18.702Z,7.90
2018-06-15T15:52:45.977Z,4.23
2018-06-15T15:55:13.266Z,6.63
2018-06-15T15:57:40.569Z,3.93
2018-06-15T16:00:07.890Z,5.97
2018-06-15T16:02:35.156Z,10.83
2018-06-15T16:05:02.753Z,10.77
2018-06-15T16:07:30.032Z,13.90
2018-06-15T16:09:57.301Z,3.13
2018-06-15T16:12:24.576Z,7.27
2018-06-15T16:14:51.913Z,5.50
2018-06-15T16:17:19.235Z,9.63
2018-06-15T16:19:46.540Z,7.37
2018-06-15T16:22:13.850Z,4.10
2018-06-15T16:24:41.209Z,12.43
2018-06-15T16:27:08.481Z,10.47
2018-06-15T16:29:35.766Z,5.63
2018-06-15T16:32:03.033Z,6.23
2018-06-15T16:34:30.356Z,8.70
2018-06-15T16:36:57.616Z,7.23
2018-06-15T16:39:24.880Z,8.00
2018-06-15T16:41:52.162Z,3.73
2018-06-15T16:44:19.437Z,9.13
2018-06-15T16:46:46.733Z,5.47
2018-06-15T16:49:14.022Z,5.70
2018-06-15T16:51:41.365Z,5.57
2018-06-15T16:54:08.716Z,5.27
2018-06-15T16:56:36.018Z,5.20
2018-06-15T16:59:03.301Z,9.07
2018-06-15T17:01:30.625Z,6.63
2018-06-15T17:03:57.934Z,4.13
2018-06-15T17:06:25.368Z,7.77
2018-06-15T17:08:52.653Z,3.07
2018-06-15T17:11:19.942Z,5.37
2018-06-15T17:13:47.313Z,5.10
2018-06-15T17:16:14.599Z,11.33
2018-06-15T17:18:41.881Z,10.43
2018-06-15T17:21:09.167Z,4.17
2018-06-15T17:23:36.519Z,6.13
2018-06-15T17:26:03.910Z,7.57
2018-06-15T17:28:31.204Z,5.97
2018-06-15T17:30:58.478Z,8.23
2018-06-15T17:33:25.768Z,4.83
2018-06-15T17:35:53.353Z,5.63
2018-06-15T17:38:20.633Z,8.40
2018-06-15T17:40:47.902Z,9.37
2018-06-15T17:43:15.193Z,5.17
2018-06-15T17:45:42.472Z,5.50
2018-06-15T17:48:09.785Z,10.80
2018-06-15T17:50:37.058Z,5.57
2018-06-15T17:53:04.544Z,8.23
2018-06-15T17:55:31.809Z,7.30
2018-06-15T17:57:59.106Z,7.40
2018-06-15T18:00:26.397Z,4.33
2018-06-15T18:02:53.737Z,8.67
2018-06-15T18:05:21.009Z,8.73
2018-06-15T18:07:48.485Z,12.30
2018-06-15T18:10:15.771Z,8.70
2018-06-15T18:12:43.049Z,7.17
2018-06-15T18:15:10.322Z,6.93
2018-06-15T18:17:37.642Z,11.27
2018-06-15T18:20:05.133Z,10.50
2018-06-15T18:22:32.426Z,7.07
2018-06-15T18:24:59.719Z,4.40
2018-06-15T18:27:27.053Z,5.10
2018-06-15T18:29:54.472Z,11.33
2018-06-15T18:32:21.728Z,8.70
2018-06-15T18:34:48.997Z,6.40
2018-06-15T18:37:16.268Z,9.07
2018-06-15T18:39:43.532Z,9.07
2018-06-15T18:42:10.873Z,8.93
2018-06-15T18:44:38.145Z,5.57
2018-06-15T18:47:05.444Z,6.10
2018-06-15T18:49:32.711Z,9.67
2018-06-15T18:51:59.981Z,5.93
2018-06-15T18:54:27.340Z,5.60
2018-06-15T18:56:54.565Z,9.40
2018-06-15T18:59:21.834Z,3.90
2018-06-15T19:01:49.113Z,6.93
2018-06-15T19:04:16.433Z,11.83
2018-06-15T19:06:43.724Z,8.60
2018-06-15T19:09:11.613Z,6.70
2018-06-15T19:11:38.965Z,5.50
2018-06-15T19:14:06.245Z,11.43
2018-06-15T19:16:33.557Z,12.13
2018-06-15T19:19:00.868Z,8.50
2018-06-15T19:21:28.308Z,5.03
2018-06-15T19:23:55.584Z,4.70
2018-06-15T19:26:22.907Z,4.60
2018-06-15T19:28:50.219Z,5.83
2018-06-15T19:31:17.489Z,11.70
2018-06-15T19:33:44.765Z,13.07
2018-06-15T19:36:12.040Z,6.73
2018-06-15T19:38:39.333Z,4.60
2018-06-15T19:41:06.637Z,4.93
2018-06-15T19:43:33.901Z,6.23
2018-06-15T19:46:01.175Z,5.40
2018-06-15T19:48:29.297Z,8.50
2018-06-15T19:50:56.564Z,6.07
2018-06-15T19:53:23.861Z,6.17
2018-06-15T19:55:51.172Z,5.90
2018-06-15T19:58:18.477Z,3.93
2018-06-15T20:00:45.748Z,7.93
2018-06-15T20:03:13.047Z,7.80
2018-06-15T20:05:40.327Z,6.77
2018-06-15T20:08:07.625Z,5.30
2018-06-15T20:10:35.048Z,6.63
2018-06-15T20:13:02.406Z,4.60
2018-06-15T20:15:29.681Z,5.27
2018-06-15T20:17:56.948Z,5.90
2018-06-15T20:20:24.222Z,7.87
2018-06-15T20:22:51.460Z,4.50
2018-06-15T20:25:18.740Z,6.23
2018-06-15T20:27:46.057Z,9.53
2018-06-15T20:30:13.317Z,10.90
2018-06-15T20:32:40.599Z,6.40
2018-06-15T20:35:07.866Z,9.93
2018-06-15T20:37:35.186Z,9.37
2018-06-15T20:40:02.497Z,3.80
2018-06-15T20:42:29.769Z,6.10
2018-06-15T20:44:57.069Z,7.00
2018-06-15T20:47:24.360Z,7.83
2018-06-15T20:49:51.660Z,5.13
2018-06-15T20:52:18.924Z,13.43
2018-06-15T20:54:46.198Z,6.03
2018-06-15T20:57:13.465Z,3.93
2018-06-15T20:59:40.760Z,5.23
2018-06-15T21:02:08.029Z,8.57
2018-06-15T21:04:35.304Z,8.53
2018-06-15T21:07:02.645Z,6.07
2018-06-15T21:09:29.937Z,8.13
2018-06-15T21:11:57.361Z,5.00
2018-06-15T21:14:24.641Z,11.23
2018-06-15T21:16:52.137Z,10.33
2018-06-15T21:19:19.417Z,13.07
2018-06-15T21:21:46.718Z,8.60
2018-06-15T21:24:14.000Z,9.53
2018-06-15T21:26:41.317Z,3.10
2018-06-15T21:29:08.593Z,4.80
2018-06-15T21:31:35.933Z,6.70
2018-06-15T21:34:03.247Z,6.80
2018-06-15T21:36:30.529Z,4.70
2018-06-15T21:38:57.808Z,4.93
2018-06-15T21:41:25.108Z,7.20
2018-06-15T21:43:52.892Z,3.67
2018-06-15T21:46:20.210Z,4.17
2018-06-15T21:48:47.517Z,9.50
2018-06-15T21:51:14.778Z,8.50
2018-06-15T21:53:42.104Z,7.73
2018-06-15T21:56:09.488Z,7.43
2018-06-15T21:58:36.768Z,5.30
2018-06-15T22:01:04.065Z,6.57
2018-06-15T22:03:31.367Z,10.63
2018-06-15T22:05:58.667Z,3.47
2018-06-15T22:08:25.949Z,3.70
2018-06-15T22:10:53.261Z,5.30
2018-06-15T22:13:20.721Z,10.97
2018-06-15T22:15:47.999Z,5.90
2018-06-15T22:18:15.255Z,4.50
2018-06-15T22:20:42.517Z,9.13
2018-06-15T22:23:09.771Z,11.03
2018-06-15T22:25:37.033Z,4.70
2018-06-15T22:28:04.329Z,2.63
2018-06-15T22:30:31.652Z,8.63
2018-06-15T22:32:58.957Z,5.87
2018-06-15T22:35:26.219Z,9.40
2018-06-15T22:37:53.489Z,6.00
2018-06-15T22:40:20.836Z,3.83
2018-06-15T22:42:48.108Z,6.10
2018-06-15T22:45:15.384Z,6.53
2018-06-15T22:47:42.649Z,11.50
2018-06-15T22:50:09.928Z,15.10
2018-06-15T22:52:37.229Z,4.00
2018-06-15T22:55:04.504Z,12.50
2018-06-15T22:57:31.825Z,9.53
2018-06-15T22:59:59.112Z,3.70
2018-06-15T23:02:26.386Z,3.50
2018-06-15T23:04:53.650Z,6.83
2018-06-15T23:07:20.916Z,9.27
2018-06-15T23:09:48.176Z,7.53
2018-06-15T23:12:15.489Z,8.37
2018-06-15T23:14:43.017Z,6.20
2018-06-15T23:17:10.279Z,4.10
2018-06-15T23:19:37.561Z,6.33
2018-06-15T23:22:04.874Z,3.57
2018-06-15T23:24:32.144Z,4.40
2018-06-15T23:26:59.429Z,11.27
2018-06-15T23:29:26.709Z,5.77
2018-06-15T23:31:54.018Z,10.00
2018-06-15T23:34:21.287Z,4.30
2018-06-15T23:36:48.552Z,6.67
2018-06-15T23:39:15.820Z,6.20
2018-06-15T23:41:43.095Z,3.70
2018-06-15T23:44:10.387Z,4.33
2018-06-15T23:46:37.684Z,7.93
2018-06-15T23:49:04.993Z,5.00
2018-06-15T23:51:32.335Z,3.33
2018-06-15T23:53:59.625Z,5.87
2018-06-15T23:56:26.888Z,7.67
2018-06-15T23:58:54.160Z,10.80
